createdAt,value
2024-01-16T00:02:11.705Z,5.03
2024-01-16T00:04:39.015Z,4.32
2024-01-16T00:07:06.353Z,3.53
2024-01-16T00:09:36.578Z,3.42
2024-01-16T00:12:05.005Z,3.50
2024-01-16T00:14:36.541Z,3.97
2024-01-16T00:17:04.241Z,3.93
2024-01-16T00:19:31.897Z,3.90
2024-01-16T00:21:59.024Z,4.85
2024-01-16T00:24:26.139Z,5.15
2024-01-16T00:26:53.256Z,4.28
2024-01-16T00:29:20.536Z,3.78
2024-01-16T00:31:47.597Z,4.75
2024-01-16T00:34:15.076Z,3.72
2024-01-16T00:36:42.162Z,4.03
2024-01-16T00:39:09.351Z,3.70
2024-01-16T00:41:36.455Z,4.60
2024-01-16T00:44:04.156Z,4.50
2024-01-16T00:46:31.790Z,4.05
2024-01-16T00:48:58.915Z,3.60
2024-01-16T00:51:26.632Z,4.13
2024-01-16T00:53:53.716Z,4.75
2024-01-16T00:56:20.842Z,4.50
2024-01-16T00:58:47.899Z,3.92
2024-01-16T01:01:15.015Z,3.70
2024-01-16T01:03:42.085Z,3.97
2024-01-16T01:06:09.706Z,4.18
2024-01-16T01:08:36.838Z,4.38
2024-01-16T01:11:04.139Z,4.13
2024-01-16T01:13:31.265Z,4.28
2024-01-16T01:15:58.401Z,3.47
2024-01-16T01:18:25.578Z,3.92
2024-01-16T01:20:52.906Z,4.93
2024-01-16T01:23:20.027Z,3.80
2024-01-16T01:25:47.130Z,3.70
2024-01-16T01:28:14.273Z,4.03
2024-01-16T01:30:41.384Z,4.05
2024-01-16T01:33:08.586Z,4.05
2024-01-16T01:35:35.776Z,3.45
2024-01-16T01:38:03.171Z,3.97
2024-01-16T01:40:30.222Z,4.25
2024-01-16T01:42:57.240Z,4.60
2024-01-16T01:45:24.243Z,4.18
2024-01-16T01:47:51.545Z,4.30
2024-01-16T01:50:19.464Z,4.53
2024-01-16T01:52:46.801Z,4.05
2024-01-16T01:55:15.128Z,4.03
2024-01-16T01:57:44.230Z,3.75
2024-01-16T02:00:12.202Z,4.07
2024-01-16T02:02:42.790Z,5.65
2024-01-16T02:05:10.991Z,4.35
2024-01-16T02:07:39.260Z,4.50
2024-01-16T02:10:07.239Z,4.43
2024-01-16T02:12:34.417Z,3.63
2024-01-16T02:15:01.603Z,4.30
2024-01-16T02:17:28.715Z,4.15
2024-01-16T02:19:55.805Z,4.57
2024-01-16T02:22:29.362Z,5.80
2024-01-16T02:24:57.097Z,4.70
2024-01-16T02:27:24.125Z,4.80
2024-01-16T02:29:51.219Z,5.07
2024-01-16T02:32:18.489Z,5.30
2024-01-16T02:34:45.608Z,4.68
2024-01-16T02:37:12.743Z,5.25
2024-01-16T02:39:39.784Z,5.13
2024-01-16T02:42:07.366Z,4.93
2024-01-16T02:44:34.472Z,5.10
2024-01-16T02:47:02.048Z,5.22
2024-01-16T02:49:29.271Z,4.63
2024-01-16T02:51:56.326Z,6.15
2024-01-16T02:54:23.346Z,4.80
2024-01-16T02:56:50.965Z,5.65
2024-01-16T02:59:18.227Z,6.25
2024-01-16T03:01:45.560Z,5.82
2024-01-16T03:04:12.705Z,5.25
2024-01-16T03:06:40.376Z,6.22
2024-01-16T03:09:07.700Z,5.70
2024-01-16T03:11:34.973Z,5.90
2024-01-16T03:14:02.651Z,6.22
2024-01-16T03:16:30.004Z,5.88
2024-01-16T03:18:57.115Z,5.95
2024-01-16T03:21:24.314Z,6.55
2024-01-16T03:23:51.941Z,6.20
2024-01-16T03:26:19.265Z,6.35
2024-01-16T03:28:46.603Z,7.25
2024-01-16T03:31:16.677Z,5.45
2024-01-16T03:33:44.810Z,5.93
2024-01-16T03:36:13.921Z,6.07
2024-01-16T03:38:41.408Z,6.85
2024-01-16T03:41:09.050Z,6.28
2024-01-16T03:43:36.598Z,6.15
2024-01-16T03:46:04.283Z,6.70
2024-01-16T03:48:31.578Z,6.22
2024-01-16T03:50:58.889Z,6.97
2024-01-16T03:53:26.054Z,6.28
2024-01-16T03:55:53.123Z,5.40
2024-01-16T03:58:20.488Z,5.45
2024-01-16T04:00:48.247Z,5.70
2024-01-16T04:03:15.366Z,6.80
2024-01-16T04:05:42.572Z,6.45
2024-01-16T04:08:09.851Z,5.78
2024-01-16T04:10:36.950Z,6.43
2024-01-16T04:13:05.168Z,5.95
2024-01-16T04:15:32.426Z,6.28
2024-01-16T04:18:00.086Z,6.30
2024-01-16T04:20:27.163Z,6.60
2024-01-16T04:22:54.389Z,6.38
2024-01-16T04:25:21.491Z,6.20
2024-01-16T04:27:48.541Z,6.35
2024-01-16T04:30:15.835Z,6.50
2024-01-16T04:32:43.318Z,6.80
2024-01-16T04:35:10.719Z,7.20
2024-01-16T04:37:37.927Z,6.03
2024-01-16T04:40:06.472Z,7.40
2024-01-16T04:42:34.742Z,7.15
2024-01-16T04:45:02.446Z,8.40
2024-01-16T04:47:29.568Z,7.40
2024-01-16T04:49:56.668Z,7.45
2024-01-16T04:52:24.698Z,7.63
2024-01-16T04:54:51.762Z,8.13
2024-01-16T04:57:18.787Z,8.88
2024-01-16T04:59:45.849Z,9.00
2024-01-16T05:02:14.033Z,8.82
2024-01-16T05:04:41.090Z,7.53
2024-01-16T05:07:08.155Z,9.43
2024-01-16T05:09:35.177Z,7.90
2024-01-16T05:12:02.630Z,8.52
2024-01-16T05:14:30.333Z,9.68
2024-01-16T05:16:57.451Z,7.85
2024-01-16T05:19:24.611Z,8.38
2024-01-16T05:21:51.744Z,9.32
2024-01-16T05:24:18.772Z,8.80
2024-01-16T05:26:45.962Z,8.23
2024-01-16T05:29:13.329Z,8.35
2024-01-16T05:31:44.104Z,8.32
2024-01-16T05:34:11.810Z,8.70
2024-01-16T05:36:39.041Z,7.55
2024-01-16T05:39:06.149Z,9.50
2024-01-16T05:41:34.959Z,8.93
2024-01-16T05:44:04.768Z,9.10
2024-01-16T05:46:33.261Z,9.23
2024-01-16T05:49:00.621Z,8.13
2024-01-16T05:51:29.603Z,8.10
2024-01-16T05:53:57.573Z,8.55
2024-01-16T05:56:24.669Z,8.27
2024-01-16T05:58:53.115Z,9.02
2024-01-16T06:01:20.224Z,8.90
2024-01-16T06:03:49.759Z,9.57
2024-01-16T06:06:17.425Z,8.82
2024-01-16T06:08:44.634Z,9.32
2024-01-16T06:11:14.415Z,9.23
2024-01-16T06:13:42.120Z,9.43
2024-01-16T06:16:09.318Z,9.60
2024-01-16T06:18:37.008Z,8.32
2024-01-16T06:21:04.727Z,8.90
2024-01-16T06:23:31.944Z,9.77
2024-01-16T06:26:01.152Z,9.65
2024-01-16T06:28:28.771Z,8.63
2024-01-16T06:30:55.927Z,9.80
2024-01-16T06:33:23.228Z,10.00
2024-01-16T06:35:53.986Z,9.95
2024-01-16T06:38:21.733Z,8.82
2024-01-16T06:40:48.932Z,9.63
2024-01-16T06:43:16.811Z,9.38
2024-01-16T06:45:44.374Z,9.02
2024-01-16T06:48:11.966Z,8.77
2024-01-16T06:50:39.696Z,10.15
2024-01-16T06:53:06.716Z,9.85
2024-01-16T06:55:33.776Z,9.00
2024-01-16T06:58:00.886Z,7.95
2024-01-16T07:00:28.678Z,8.05
2024-01-16T07:02:56.011Z,8.88
2024-01-16T07:05:23.382Z,9.52
2024-01-16T07:07:50.553Z,9.95
2024-01-16T07:10:23.016Z,9.68
2024-01-16T07:15:17.893Z,8.93
2024-01-16T07:17:45.236Z,9.02
2024-01-16T07:20:12.667Z,9.00
2024-01-16T07:22:42.905Z,9.43
2024-01-16T07:25:10.307Z,7.43
2024-01-16T07:27:37.718Z,7.90
2024-01-16T07:30:08.424Z,7.65
2024-01-16T07:32:36.074Z,5.55
2024-01-16T07:35:04.147Z,5.80
2024-01-16T07:37:31.459Z,6.45
2024-01-16T07:39:58.476Z,6.15
2024-01-16T07:42:26.011Z,8.35
2024-01-16T07:44:54.068Z,6.75
2024-01-16T07:47:21.183Z,6.47
2024-01-16T07:49:48.427Z,5.55
2024-01-16T07:52:15.546Z,5.63
2024-01-16T07:54:42.618Z,6.28
2024-01-16T07:57:09.662Z,5.53
2024-01-16T07:59:36.791Z,6.28
2024-01-16T08:02:03.917Z,5.70
2024-01-16T08:04:30.988Z,6.25
2024-01-16T08:06:58.199Z,6.65
2024-01-16T08:09:26.259Z,5.95
2024-01-16T08:11:53.332Z,6.10
2024-01-16T08:14:20.572Z,8.05
2024-01-16T08:16:47.668Z,6.75
2024-01-16T08:19:15.614Z,7.25
2024-01-16T08:21:42.863Z,6.22
2024-01-16T08:24:09.931Z,6.63
2024-01-16T08:26:36.985Z,6.07
2024-01-16T08:29:04.040Z,6.35
2024-01-16T08:31:31.069Z,6.88
2024-01-16T08:33:58.667Z,7.40
2024-01-16T08:36:25.884Z,6.10
2024-01-16T08:38:53.662Z,6.90
2024-01-16T08:41:21.289Z,6.40
2024-01-16T08:43:48.707Z,5.15
2024-01-16T08:46:16.430Z,5.60
2024-01-16T08:48:43.706Z,5.70
2024-01-16T08:51:15.873Z,4.80
2024-01-16T08:53:43.345Z,6.50
2024-01-16T08:56:10.833Z,4.43
2024-01-16T08:58:39.379Z,5.47
2024-01-16T09:01:06.807Z,4.40
2024-01-16T09:03:35.199Z,5.43
2024-01-16T09:06:04.085Z,4.93
2024-01-16T09:08:31.413Z,3.60
2024-01-16T09:10:58.602Z,3.55
2024-01-16T09:13:25.652Z,4.18
2024-01-16T09:15:52.740Z,3.40
2024-01-16T09:18:20.531Z,3.78
2024-01-16T09:20:48.548Z,4.43
2024-01-16T09:23:15.693Z,3.88
2024-01-16T09:25:45.395Z,3.30
2024-01-16T09:28:13.506Z,3.67
2024-01-16T09:30:40.546Z,3.25
2024-01-16T09:33:08.303Z,3.40
2024-01-16T09:35:35.774Z,3.75
2024-01-16T09:38:03.638Z,3.83
2024-01-16T09:40:30.694Z,2.72
2024-01-16T09:42:58.359Z,3.35
2024-01-16T09:45:26.166Z,3.08
2024-01-16T09:47:54.456Z,2.47
2024-01-16T09:50:22.509Z,2.65
2024-01-16T09:52:50.334Z,2.50
2024-01-16T09:55:17.557Z,2.78
2024-01-16T09:57:47.299Z,2.38
2024-01-16T10:00:16.541Z,2.20
2024-01-16T10:02:44.115Z,2.33
2024-01-16T10:05:12.578Z,2.78
2024-01-16T10:07:41.621Z,1.90
2024-01-16T10:10:19.522Z,2.58
2024-01-16T10:12:52.079Z,2.42
2024-01-16T10:15:21.271Z,2.78
2024-01-16T10:17:48.387Z,1.80
2024-01-16T10:20:18.187Z,1.95
2024-01-16T10:22:55.455Z,1.75
2024-01-16T10:25:23.709Z,1.92
2024-01-16T10:28:04.561Z,1.83
2024-01-16T10:30:31.934Z,1.95
2024-01-16T10:33:14.212Z,1.73
2024-01-16T10:35:42.151Z,2.20
2024-01-16T10:38:09.203Z,2.20
2024-01-16T10:40:36.325Z,1.50
2024-01-16T10:43:06.566Z,2.30
2024-01-16T10:45:34.688Z,1.92
2024-01-16T10:48:06.934Z,2.25
2024-01-16T10:53:08.548Z,2.10
2024-01-16T10:55:49.080Z,2.22
2024-01-16T10:58:17.925Z,1.58
2024-01-16T11:00:52.871Z,1.58
2024-01-16T11:03:28.636Z,1.98
2024-01-16T11:05:59.161Z,1.08
2024-01-16T11:08:31.996Z,1.85
2024-01-16T11:11:01.937Z,1.40
2024-01-16T11:13:35.062Z,1.65
2024-01-16T11:16:05.145Z,1.48
2024-01-16T11:18:36.496Z,1.48
2024-01-16T11:21:09.696Z,1.80
2024-01-16T11:23:39.168Z,1.20
2024-01-16T11:26:35.616Z,1.75
2024-01-16T11:29:28.861Z,1.67
2024-01-16T11:32:12.805Z,1.65
2024-01-16T11:34:45.216Z,1.30
2024-01-16T11:37:13.431Z,1.45
2024-01-16T11:39:41.740Z,1.48
2024-01-16T11:42:11.908Z,1.52
2024-01-16T11:44:55.277Z,1.10
2024-01-16T11:47:24.695Z,0.90
2024-01-16T11:50:08.533Z,1.25
2024-01-16T11:52:45.924Z,1.67
2024-01-16T11:55:36.599Z,1.33
2024-01-16T11:58:12.632Z,1.40
2024-01-16T12:00:42.290Z,1.50
2024-01-16T12:03:11.761Z,1.90
2024-01-16T12:05:39.030Z,1.17
2024-01-16T12:08:07.290Z,1.13
2024-01-16T12:10:47.262Z,1.35
2024-01-16T12:13:14.455Z,1.00
2024-01-16T12:15:42.704Z,1.25
2024-01-16T12:18:19.582Z,1.70
2024-01-16T12:20:54.528Z,1.30
2024-01-16T12:23:23.165Z,1.40
2024-01-16T12:26:03.712Z,2.20
2024-01-16T12:28:33.705Z,0.90
2024-01-16T12:31:02.411Z,1.20
2024-01-16T12:33:30.329Z,1.45
2024-01-16T12:36:07.224Z,1.20
2024-01-16T12:38:34.689Z,1.42
2024-01-16T12:41:03.583Z,1.17
2024-01-16T12:43:33.013Z,1.25
2024-01-16T12:46:00.358Z,1.73
2024-01-16T12:48:28.341Z,1.17
2024-01-16T12:51:06.285Z,1.52
2024-01-16T12:53:35.360Z,0.93
2024-01-16T12:56:04.534Z,1.00
2024-01-16T12:58:36.247Z,0.85
2024-01-16T13:01:31.866Z,1.38
2024-01-16T13:04:06.159Z,1.27
2024-01-16T13:06:33.560Z,1.00
2024-01-16T13:09:20.221Z,1.10
2024-01-16T13:11:48.350Z,0.93
2024-01-16T13:14:15.473Z,1.00
2024-01-16T13:16:42.564Z,1.42
2024-01-16T13:19:11.985Z,1.58
2024-01-16T13:21:39.181Z,1.08
2024-01-16T13:24:07.245Z,1.55
2024-01-16T13:26:34.313Z,1.38
2024-01-16T13:29:01.732Z,1.30
2024-01-16T13:31:28.886Z,1.40
2024-01-16T13:33:57.697Z,1.75
2024-01-16T13:36:46.470Z,1.27
2024-01-16T13:39:14.162Z,1.55
2024-01-16T13:41:43.593Z,2.33
2024-01-16T13:44:10.685Z,1.58
2024-01-16T13:49:08.991Z,1.88
2024-01-16T13:51:36.395Z,1.10
2024-01-16T13:54:04.524Z,1.27
2024-01-16T13:56:48.739Z,1.05
2024-01-16T13:59:19.062Z,1.27
2024-01-16T14:01:46.282Z,1.48
2024-01-16T14:04:13.343Z,1.45
2024-01-16T14:06:56.215Z,1.25
2024-01-16T14:09:28.441Z,1.20
2024-01-16T14:11:55.558Z,1.65
2024-01-16T14:14:22.697Z,1.00
2024-01-16T14:16:54.629Z,1.13
2024-01-16T14:19:29.095Z,1.48
2024-01-16T14:21:56.266Z,0.85
2024-01-16T14:24:23.297Z,1.38
2024-01-16T14:26:50.545Z,1.55
2024-01-16T14:29:17.830Z,1.20
2024-01-16T14:31:45.146Z,0.95
2024-01-16T14:34:14.392Z,1.35
2024-01-16T14:36:42.468Z,1.60
2024-01-16T14:39:14.346Z,1.27
2024-01-16T14:41:42.523Z,1.55
2024-01-16T14:44:10.966Z,1.60
2024-01-16T14:46:38.160Z,1.80
2024-01-16T14:49:05.506Z,1.40
2024-01-16T14:51:33.556Z,1.75
2024-01-16T14:54:02.894Z,1.85
2024-01-16T14:56:31.378Z,1.88
2024-01-16T14:58:58.834Z,1.73
2024-01-16T15:01:26.144Z,1.50
2024-01-16T15:03:54.712Z,1.60
2024-01-16T15:06:22.563Z,2.45
2024-01-16T15:08:49.733Z,1.52
2024-01-16T15:11:18.204Z,1.63
2024-01-16T15:13:46.036Z,2.05
2024-01-16T15:16:13.257Z,1.58
2024-01-16T15:18:40.560Z,1.90
2024-01-16T15:21:08.043Z,2.38
2024-01-16T15:23:35.156Z,2.35
2024-01-16T15:26:04.357Z,2.33
2024-01-16T15:28:32.838Z,3.40
2024-01-16T15:31:07.383Z,2.42
2024-01-16T15:33:37.984Z,2.97
2024-01-16T15:36:05.544Z,2.33
2024-01-16T15:38:32.908Z,1.88
2024-01-16T15:41:00.107Z,2.35
2024-01-16T15:43:28.005Z,2.88
2024-01-16T15:45:55.843Z,2.40
2024-01-16T15:48:22.909Z,2.47
2024-01-16T15:50:50.083Z,2.85
2024-01-16T15:53:17.669Z,2.10
2024-01-16T15:55:45.093Z,2.13
2024-01-16T15:58:13.288Z,2.10
2024-01-16T16:00:40.529Z,3.20
2024-01-16T16:03:08.051Z,2.85
2024-01-16T16:05:35.348Z,2.22
2024-01-16T16:08:02.603Z,2.55
2024-01-16T16:10:29.675Z,2.42
2024-01-16T16:12:56.701Z,3.03
2024-01-16T16:15:23.817Z,3.08
2024-01-16T16:17:53.441Z,2.30
2024-01-16T16:20:25.496Z,2.67
2024-01-16T16:22:54.403Z,3.17
2024-01-16T16:25:21.518Z,3.22
2024-01-16T16:27:48.744Z,2.75
2024-01-16T16:30:16.115Z,2.40
2024-01-16T16:32:43.833Z,2.70
2024-01-16T16:35:11.435Z,2.80
2024-01-16T16:37:38.584Z,3.38
2024-01-16T16:40:07.053Z,3.13
2024-01-16T16:42:34.130Z,2.90
2024-01-16T16:45:01.860Z,3.53
2024-01-16T16:47:29.216Z,2.92
2024-01-16T16:49:56.366Z,3.22
2024-01-16T16:52:23.458Z,3.05
2024-01-16T16:54:50.664Z,3.83
2024-01-16T16:57:18.415Z,3.38
2024-01-16T16:59:46.487Z,5.47
2024-01-16T17:02:13.640Z,5.68
2024-01-16T17:04:41.073Z,4.88
2024-01-16T17:07:11.462Z,5.53
2024-01-16T17:09:41.305Z,6.45
2024-01-16T17:12:08.587Z,6.63
2024-01-16T17:14:35.917Z,5.78
2024-01-16T17:17:04.495Z,5.78
2024-01-16T17:19:31.692Z,5.57
2024-01-16T17:21:59.801Z,6.40
2024-01-16T17:24:27.727Z,5.07
2024-01-16T17:26:55.129Z,5.18
2024-01-16T17:29:22.298Z,5.10
2024-01-16T17:31:49.503Z,6.82
2024-01-16T17:34:17.622Z,5.85
2024-01-16T17:36:47.550Z,7.18
2024-01-16T17:39:16.520Z,7.22
2024-01-16T17:41:46.440Z,7.53
2024-01-16T17:44:13.858Z,5.88
2024-01-16T17:46:45.798Z,6.45
2024-01-16T17:49:13.648Z,6.57
2024-01-16T17:51:40.855Z,7.35
2024-01-16T17:54:07.998Z,5.50
2024-01-16T17:56:36.284Z,5.82
2024-01-16T17:59:05.027Z,4.60
2024-01-16T18:01:33.734Z,5.80
2024-01-16T18:04:01.442Z,5.63
2024-01-16T18:06:28.764Z,5.75
2024-01-16T18:08:56.072Z,4.75
2024-01-16T18:11:24.226Z,5.97
2024-01-16T18:13:51.327Z,5.85
2024-01-16T18:16:18.765Z,5.80
2024-01-16T18:18:46.196Z,7.07
2024-01-16T18:21:14.067Z,6.45
2024-01-16T18:23:42.077Z,6.75
2024-01-16T18:26:09.817Z,7.35
2024-01-16T18:28:37.103Z,7.68
2024-01-16T18:31:04.787Z,7.40
2024-01-16T18:33:33.609Z,7.35
2024-01-16T18:36:03.114Z,6.55
2024-01-16T18:38:30.226Z,7.72
2024-01-16T18:40:59.301Z,7.20
2024-01-16T18:43:28.694Z,8.57
2024-01-16T18:45:55.776Z,8.68
2024-01-16T18:48:22.985Z,9.13
2024-01-16T18:50:55.454Z,8.45
2024-01-16T18:53:23.125Z,8.00
2024-01-16T18:55:53.283Z,8.32
2024-01-16T18:58:21.794Z,7.72
2024-01-16T19:00:51.337Z,7.93
2024-01-16T19:03:19.927Z,7.55
2024-01-16T19:05:47.556Z,8.07
2024-01-16T19:08:15.256Z,8.45
2024-01-16T19:10:42.731Z,8.38
2024-01-16T19:13:12.170Z,9.40
2024-01-16T19:15:39.324Z,9.85
2024-01-16T19:18:07.051Z,8.20
2024-01-16T19:20:34.842Z,9.27
2024-01-16T19:23:03.936Z,9.98
2024-01-16T19:25:31.044Z,10.40
2024-01-16T19:27:58.884Z,9.38
2024-01-16T19:30:26.539Z,8.80
2024-01-16T19:32:53.792Z,8.95
2024-01-16T19:35:21.143Z,8.85
2024-01-16T19:37:48.175Z,10.70
2024-01-16T19:40:17.199Z,11.75
2024-01-16T19:42:44.821Z,14.35
2024-01-16T19:45:12.765Z,16.25
2024-01-16T19:47:41.788Z,16.80
2024-01-16T19:50:23.115Z,15.75
2024-01-16T19:52:56.186Z,15.90
2024-01-16T19:55:27.138Z,15.13
2024-01-16T19:57:55.266Z,13.73
2024-01-16T20:00:22.670Z,12.52
2024-01-16T20:02:50.660Z,11.88
2024-01-16T20:05:18.424Z,9.68
2024-01-16T20:07:46.453Z,10.00
2024-01-16T20:10:16.902Z,9.60
2024-01-16T20:12:46.464Z,8.82
2024-01-16T20:15:16.692Z,9.63
2024-01-16T20:17:45.229Z,9.02
2024-01-16T20:20:14.243Z,9.43
2024-01-16T20:22:42.250Z,8.35
2024-01-16T20:25:19.815Z,9.32
2024-01-16T20:27:47.642Z,8.48
2024-01-16T20:30:14.977Z,8.50
2024-01-16T20:32:53.994Z,8.68
2024-01-16T20:35:24.305Z,9.93
2024-01-16T20:37:51.518Z,10.20
2024-01-16T20:40:18.835Z,9.63
2024-01-16T20:42:45.861Z,10.00
2024-01-16T20:45:13.072Z,15.30
2024-01-16T20:47:41.126Z,14.88
2024-01-16T20:50:10.790Z,11.35
2024-01-16T20:52:38.380Z,12.20
2024-01-16T20:55:08.109Z,11.52
2024-01-16T20:57:36.145Z,9.57
2024-01-16T21:00:06.075Z,10.95
2024-01-16T21:02:33.393Z,12.50
2024-01-16T21:05:00.873Z,16.08
2024-01-16T21:07:28.515Z,14.95
2024-01-16T21:09:56.403Z,12.73
2024-01-16T21:12:23.895Z,9.55
2024-01-16T21:14:51.233Z,11.07
2024-01-16T21:17:18.516Z,12.20
2024-01-16T21:19:45.940Z,12.40
2024-01-16T21:22:16.645Z,13.48
2024-01-16T21:24:45.714Z,10.20
2024-01-16T21:27:15.386Z,9.98
2024-01-16T21:29:45.116Z,8.63
2024-01-16T21:32:12.478Z,9.75
2024-01-16T21:34:39.626Z,9.05
2024-01-16T21:37:06.804Z,11.40
2024-01-16T21:39:36.137Z,10.63
2024-01-16T21:42:04.269Z,11.07
2024-01-16T21:44:32.991Z,10.82
2024-01-16T21:47:00.136Z,10.63
2024-01-16T21:49:27.435Z,10.43
2024-01-16T21:51:54.521Z,11.10
2024-01-16T21:54:22.281Z,11.05
2024-01-16T21:56:49.462Z,11.45
2024-01-16T21:59:16.614Z,10.82
2024-01-16T22:01:46.985Z,8.25
2024-01-16T22:04:14.484Z,8.85
2024-01-16T22:06:42.505Z,8.73
2024-01-16T22:09:14.913Z,10.38
2024-01-16T22:11:42.702Z,8.32
2024-01-16T22:14:09.821Z,7.75
2024-01-16T22:16:36.836Z,11.75
2024-01-16T22:19:04.113Z,9.00
2024-01-16T22:21:33.993Z,9.77
2024-01-16T22:24:01.513Z,10.75
2024-01-16T22:26:28.861Z,9.00
2024-01-16T22:28:56.670Z,9.57
2024-01-16T22:31:23.733Z,10.00
2024-01-16T22:33:51.071Z,8.82
2024-01-16T22:36:19.764Z,9.23
2024-01-16T22:38:48.040Z,10.80
2024-01-16T22:41:15.140Z,9.55
2024-01-16T22:43:45.131Z,9.60
2024-01-16T22:46:12.236Z,9.00
2024-01-16T22:48:39.782Z,8.63
2024-01-16T22:51:07.164Z,8.30
2024-01-16T22:53:34.390Z,9.00
2024-01-16T22:56:01.553Z,10.10
2024-01-16T22:58:28.579Z,8.27
2024-01-16T23:00:55.667Z,8.05
2024-01-16T23:03:22.788Z,9.00
2024-01-16T23:05:50.118Z,9.05
2024-01-16T23:08:19.374Z,8.85
2024-01-16T23:10:47.420Z,8.07
2024-01-16T23:13:14.563Z,8.05
2024-01-16T23:15:41.628Z,9.15
2024-01-16T23:18:08.855Z,9.10
2024-01-16T23:20:36.121Z,10.50
2024-01-16T23:23:03.289Z,8.82
2024-01-16T23:25:30.381Z,9.23
2024-01-16T23:27:57.484Z,10.60
2024-01-16T23:30:24.963Z,10.60
2024-01-16T23:32:52.137Z,7.55
2024-01-16T23:35:20.168Z,9.13
2024-01-16T23:37:49.433Z,9.60
2024-01-16T23:40:18.353Z,9.48
2024-01-16T23:42:45.988Z,8.98
2024-01-16T23:45:23.498Z,9.43
2024-01-16T23:47:55.703Z,9.25
2024-01-16T23:50:23.078Z,9.40
2024-01-16T23:52:51.023Z,9.77
2024-01-16T23:55:19.020Z,9.52
2024-01-16T23:57:47.290Z,8.55
